Time;durP1;ratioP1;P1;durP2;ratioP2;P2;SDS_P1;SDS_P2;PMS_P1;PMS_P2;Temp;Humidity;BMP_temperature;BMP_pressure;BME280_temperature;BME280_humidity;BME280_pressure;Samples;Min_cycle;Max_cycle;Signal;HPM_P1;HPM_P2
2021/09/27 00:02:08;;;;;;;16.70;10.00;;;;;;;;;;6239185;23;20507;-78
2021/09/27 00:04:34;;;;;;;14.55;9.85;;;;;;;;;;6238728;23;20082;-76
2021/09/27 00:07:01;;;;;;;16.95;10.13;;;;;;;;;;6239065;23;20015;-76
2021/09/27 00:09:32;;;;;;;13.02;10.57;;;;;;;;;;6242225;23;19997;-75
2021/09/27 00:11:58;;;;;;;;;;;;;;;;;;6242781;23;20755;-76
2021/09/27 00:14:25;;;;;;;15.32;9.95;;;;;;;;;;6240579;23;19906;-76
2021/09/27 00:16:51;;;;;;;21.40;10.00;;;;;;;;;;6242159;23;20031;-76
2021/09/27 00:19:17;;;;;;;21.98;10.52;;;;;;;;;;6241413;23;20024;-76
2021/09/27 00:21:44;;;;;;;16.45;9.80;;;;;;;;;;6242515;23;20476;-75
2021/09/27 00:24:10;;;;;;;19.65;10.80;;;;;;;;;;6242505;23;20038;-75
2021/09/27 00:26:36;;;;;;;17.55;10.48;;;;;;;;;;6240081;23;20087;-76
2021/09/27 00:29:03;;;;;;;18.50;9.80;;;;;;;;;;6241549;23;20387;-76
2021/09/27 00:31:29;;;;;;;15.77;10.10;;;;;;;;;;6241979;23;19996;-77
2021/09/27 00:33:56;;;;;;;15.20;10.52;;;;;;;;;;6241676;23;20079;-76
2021/09/27 00:36:22;;;;;;;22.70;10.88;;;;;;;;;;6241691;23;20008;-76
2021/09/27 00:38:48;;;;;;;18.63;11.20;;;;;;;;;;6240413;23;20004;-77
2021/09/27 00:41:15;;;;;;;20.10;10.63;;;;;;;;;;6241674;23;20091;-74
2021/09/27 00:43:42;;;;;;;18.70;10.73;;;;;;;;;;6241706;23;20447;-76
2021/09/27 00:46:10;;;;;;;18.38;10.60;;;;;;;;;;6242264;23;20061;-77
2021/09/27 00:48:37;;;;;;;18.30;11.10;;;;;;;;;;6242211;23;20419;-76
2021/09/27 00:51:06;;;;;;;19.58;11.32;;;;;;;;;;6239520;23;20420;-76
2021/09/27 00:53:41;;;;;;;21.08;10.43;;;;;;;;;;6242149;23;20000;-75
2021/09/27 00:56:08;;;;;;;19.38;10.65;;;;;;;;;;6241357;23;20034;-76
2021/09/27 00:58:35;;;;;;;17.55;11.18;;;;;;;;;;6241950;23;20003;-75
2021/09/27 01:01:01;;;;;;;19.10;10.70;;;;;;;;;;6241846;22;20378;-75
2021/09/27 01:03:29;;;;;;;21.73;10.75;;;;;;;;;;6234939;23;20058;-77
2021/09/27 01:06:16;;;;;;;17.35;10.93;;;;;;;;;;6234746;23;20039;-75
2021/09/27 01:08:45;;;;;;;16.35;10.25;;;;;;;;;;6219615;23;20079;-75
2021/09/27 01:11:11;;;;;;;19.13;10.45;;;;;;;;;;6241364;23;20004;-76
2021/09/27 01:13:37;;;;;;;17.90;11.18;;;;;;;;;;6242285;23;20035;-77
2021/09/27 01:16:16;;;;;;;18.38;10.57;;;;;;;;;;6241867;23;20007;-75
2021/09/27 01:18:48;;;;;;;21.55;11.13;;;;;;;;;;6239313;23;20004;-78
2021/09/27 01:21:32;;;;;;;20.48;9.95;;;;;;;;;;6236246;23;20015;-77
2021/09/27 01:24:14;;;;;;;16.25;10.00;;;;;;;;;;6235977;23;20016;-77
2021/09/27 01:26:59;;;;;;;18.50;10.70;;;;;;;;;;6236295;23;20011;-76
2021/09/27 01:29:34;;;;;;;19.00;11.13;;;;;;;;;;6235799;23;20031;-76
2021/09/27 01:32:19;;;;;;;19.90;10.80;;;;;;;;;;6234999;23;20119;-76
2021/09/27 01:34:55;;;;;;;15.90;10.80;;;;;;;;;;6234260;23;20460;-76
2021/09/27 01:37:28;;;;;;;19.50;10.65;;;;;;;;;;6235670;23;20004;-79
2021/09/27 01:40:00;;;;;;;16.98;10.60;;;;;;;;;;6237589;23;20086;-76
2021/09/27 01:42:26;;;;;;;18.30;10.60;;;;;;;;;;6237985;23;20083;-75
2021/09/27 01:45:15;;;;;;;15.55;10.15;;;;;;;;;;6236700;23;20000;-77
2021/09/27 01:47:50;;;;;;;22.10;10.82;;;;;;;;;;6237932;23;20488;-75
2021/09/27 01:50:17;;;;;;;20.23;10.25;;;;;;;;;;6236547;23;20449;-75
2021/09/27 01:52:45;;;;;;;15.55;10.38;;;;;;;;;;6237721;23;20478;-76
2021/09/27 01:55:21;;;;;;;21.10;10.70;;;;;;;;;;6236682;23;20072;-73
2021/09/27 01:57:50;;;;;;;17.92;10.98;;;;;;;;;;6237674;23;20290;-73
2021/09/27 02:00:18;;;;;;;19.65;11.27;;;;;;;;;;6235639;22;20087;-75
2021/09/27 02:03:08;;;;;;;20.50;9.98;;;;;;;;;;6238192;23;20004;-73
2021/09/27 02:05:43;;;;;;;20.00;10.80;;;;;;;;;;6238140;23;20028;-75
2021/09/27 02:08:15;;;;;;;21.42;11.20;;;;;;;;;;6236299;23;20079;-76
2021/09/27 02:10:45;;;;;;;19.92;10.80;;;;;;;;;;6238008;23;20005;-75
2021/09/27 02:13:18;;;;;;;16.50;10.43;;;;;;;;;;6237364;23;20008;-76
2021/09/27 02:15:57;;;;;;;19.75;10.88;;;;;;;;;;6237566;23;20004;-76
2021/09/27 02:18:33;;;;;;;21.17;11.82;;;;;;;;;;6237884;23;20034;-75
2021/09/27 02:21:02;;;;;;;18.75;10.57;;;;;;;;;;6208588;23;20389;-76
2021/09/27 02:23:38;;;;;;;24.45;11.55;;;;;;;;;;6238614;23;20004;-76
2021/09/27 02:26:04;;;;;;;20.88;11.75;;;;;;;;;;6237831;23;20004;-76
2021/09/27 02:28:30;;;;;;;26.33;11.20;;;;;;;;;;6237802;23;20442;-77
2021/09/27 02:30:59;;;;;;;22.10;10.98;;;;;;;;;;6235962;23;20011;-76
2021/09/27 02:33:45;;;;;;;15.63;10.98;;;;;;;;;;6229413;23;20046;-77
2021/09/27 02:36:18;;;;;;;20.27;11.50;;;;;;;;;;6232851;23;20582;-75
2021/09/27 02:38:53;;;;;;;17.92;11.98;;;;;;;;;;6233570;23;20038;-76
2021/09/27 02:41:30;;;;;;;26.38;11.95;;;;;;;;;;6231575;23;20051;-75
2021/09/27 02:43:56;;;;;;;24.83;11.13;;;;;;;;;;6234010;23;20988;-75
2021/09/27 02:46:23;;;;;;;20.27;10.68;;;;;;;;;;6233835;23;20509;-75
2021/09/27 02:48:58;;;;;;;23.55;11.07;;;;;;;;;;6233303;23;20011;-75
2021/09/27 02:51:25;;;;;;;18.48;11.27;;;;;;;;;;6232529;23;20019;-73
2021/09/27 02:53:51;;;;;;;21.77;11.73;;;;;;;;;;6232046;23;20015;-74
2021/09/27 02:56:36;;;;;;;13.60;10.85;;;;;;;;;;6233274;23;20730;-76
2021/09/27 02:59:21;;;;;;;21.58;10.32;;;;;;;;;;6233413;23;20459;-76
2021/09/27 03:02:01;;;;;;;15.75;9.57;;;;;;;;;;6232017;23;20087;-75
2021/09/27 03:04:34;;;;;;;17.10;10.55;;;;;;;;;;6230708;23;20023;-77
2021/09/27 03:07:03;;;;;;;17.52;9.60;;;;;;;;;;6230134;23;20004;-75
2021/09/27 03:09:47;;;;;;;20.27;9.98;;;;;;;;;;6229004;23;20012;-75
2021/09/27 03:12:32;;;;;;;18.17;10.90;;;;;;;;;;6203701;23;20397;-75
2021/09/27 03:15:07;;;;;;;14.05;9.55;;;;;;;;;;6230311;23;20019;-76
2021/09/27 03:17:48;;;;;;;12.90;9.63;;;;;;;;;;6228115;23;20000;-77
2021/09/27 03:20:31;;;;;;;20.55;10.70;;;;;;;;;;6230475;23;20483;-75
2021/09/27 03:22:58;;;;;;;15.68;10.35;;;;;;;;;;6233544;23;20084;-73
2021/09/27 03:25:42;;;;;;;15.93;9.50;;;;;;;;;;6231334;23;20146;-73
2021/09/27 03:28:11;;;;;;;12.05;9.27;;;;;;;;;;6233200;23;20007;-76
2021/09/27 03:30:44;;;;;;;16.20;10.07;;;;;;;;;;6233054;23;20074;-75
2021/09/27 03:33:10;;;;;;;19.95;11.23;;;;;;;;;;6233230;23;20064;-73
2021/09/27 03:35:54;;;;;;;17.00;11.00;;;;;;;;;;6231121;23;20068;-73
2021/09/27 03:38:50;;;;;;;13.50;10.23;;;;;;;;;;6233243;23;20027;-73
2021/09/27 03:41:16;;;;;;;20.88;10.82;;;;;;;;;;6125251;23;20544;-76
2021/09/27 03:43:45;;;;;;;18.73;11.65;;;;;;;;;;6232384;23;20043;-75
2021/09/27 03:46:27;;;;;;;26.67;12.05;;;;;;;;;;6229382;23;20360;-75
2021/09/27 03:49:00;;;;;;;18.92;11.13;;;;;;;;;;6230217;23;20452;-75
2021/09/27 03:51:28;;;;;;;17.75;11.23;;;;;;;;;;6229582;23;20006;-73
2021/09/27 03:53:57;;;;;;;17.30;11.35;;;;;;;;;;6227909;23;20551;-74
2021/09/27 03:56:46;;;;;;;19.35;11.15;;;;;;;;;;6229953;23;20007;-75
2021/09/27 03:59:15;;;;;;;21.10;11.30;;;;;;;;;;6170487;23;20004;-74
2021/09/27 04:01:51;;;;;;;18.50;11.13;;;;;;;;;;6227920;22;20016;-73
2021/09/27 04:04:27;;;;;;;20.23;11.02;;;;;;;;;;6230351;23;20032;-75
2021/09/27 04:06:58;;;;;;;20.27;12.07;;;;;;;;;;6230150;23;20070;-74
2021/09/27 04:09:42;;;;;;;14.75;11.23;;;;;;;;;;6227897;23;20017;-73
2021/09/27 04:12:21;;;;;;;19.30;11.73;;;;;;;;;;6202622;23;20634;-75
2021/09/27 04:14:59;;;;;;;15.75;11.65;;;;;;;;;;6229812;23;20011;-74
2021/09/27 04:17:48;;;;;;;18.45;11.85;;;;;;;;;;6228972;23;20400;-74
2021/09/27 04:20:22;;;;;;;20.63;11.90;;;;;;;;;;6213060;23;20008;-74
2021/09/27 04:23:11;;;;;;;24.50;11.98;;;;;;;;;;6228583;23;20004;-74
2021/09/27 04:25:46;;;;;;;19.90;11.32;;;;;;;;;;6213487;23;20009;-73
2021/09/27 04:28:12;;;;;;;21.77;11.45;;;;;;;;;;6229726;23;20000;-75
2021/09/27 04:31:02;;;;;;;16.92;12.55;;;;;;;;;;6228385;23;20000;-74
2021/09/27 04:33:47;;;;;;;19.05;12.48;;;;;;;;;;6229021;23;20091;-74
2021/09/27 04:36:39;;;;;;;18.80;12.70;;;;;;;;;;6229622;23;20063;-75
2021/09/27 04:39:11;;;;;;;20.70;12.65;;;;;;;;;;6223722;23;20008;-74
2021/09/27 04:41:55;;;;;;;18.83;12.48;;;;;;;;;;6229537;23;20016;-76
2021/09/27 04:44:37;;;;;;;20.58;12.43;;;;;;;;;;6229294;23;20915;-74
2021/09/27 04:47:13;;;;;;;18.95;12.73;;;;;;;;;;6226871;23;20079;-75
2021/09/27 04:49:58;;;;;;;22.88;13.20;;;;;;;;;;6227237;23;20018;-74
2021/09/27 04:52:30;;;;;;;16.98;12.70;;;;;;;;;;6227614;23;20027;-74
2021/09/27 04:55:03;;;;;;;23.33;12.15;;;;;;;;;;6227683;23;20115;-73
2021/09/27 04:57:31;;;;;;;16.67;12.23;;;;;;;;;;6229330;23;19996;-73
2021/09/27 05:00:19;;;;;;;22.55;12.20;;;;;;;;;;6226165;22;20551;-74
2021/09/27 05:02:48;;;;;;;17.17;11.85;;;;;;;;;;6229684;23;20039;-76
2021/09/27 05:05:27;;;;;;;25.83;13.48;;;;;;;;;;6228629;23;20004;-75
2021/09/27 05:08:23;;;;;;;18.92;12.80;;;;;;;;;;6227057;23;20004;-73
2021/09/27 05:11:08;;;;;;;20.17;12.70;;;;;;;;;;6201035;23;20043;-74
2021/09/27 05:13:52;;;;;;;18.20;13.77;;;;;;;;;;6228222;23;20024;-74
2021/09/27 05:16:31;;;;;;;19.65;13.95;;;;;;;;;;6226706;23;20011;-74
2021/09/27 05:19:00;;;;;;;21.50;12.73;;;;;;;;;;6227337;23;20008;-74
2021/09/27 05:21:29;;;;;;;18.33;12.05;;;;;;;;;;6225058;23;20504;-75
2021/09/27 05:24:14;;;;;;;16.50;11.55;;;;;;;;;;6228637;23;20027;-77
2021/09/27 05:26:57;;;;;;;15.88;11.07;;;;;;;;;;6228618;23;20449;-75
2021/09/27 05:29:29;;;;;;;15.27;11.13;;;;;;;;;;6229540;23;20115;-76
2021/09/27 05:32:14;;;;;;;19.92;12.60;;;;;;;;;;6228903;23;20477;-74
2021/09/27 05:34:44;;;;;;;19.25;11.73;;;;;;;;;;6224872;23;20001;-74
2021/09/27 05:37:14;;;;;;;16.83;11.52;;;;;;;;;;6228856;23;20012;-73
2021/09/27 05:39:40;;;;;;;15.05;11.50;;;;;;;;;;6201844;23;20062;-76
2021/09/27 05:42:13;;;;;;;19.73;11.93;;;;;;;;;;6228865;23;20030;-75
2021/09/27 05:44:39;;;;;;;22.52;11.88;;;;;;;;;;6229777;23;20007;-74
2021/09/27 05:47:20;;;;;;;20.80;12.35;;;;;;;;;;6228172;23;20004;-75
2021/09/27 05:49:52;;;;;;;20.10;11.98;;;;;;;;;;6230699;23;20046;-74
2021/09/27 05:52:26;;;;;;;18.98;11.75;;;;;;;;;;6201684;23;20008;-74
2021/09/27 05:55:00;;;;;;;21.75;13.50;;;;;;;;;;6231283;23;20436;-76
2021/09/27 05:57:29;;;;;;;26.58;13.48;;;;;;;;;;6229250;23;20502;-74
2021/09/27 06:00:17;;;;;;;20.73;13.65;;;;;;;;;;6231358;22;20001;-74
2021/09/27 06:02:46;;;;;;;16.73;12.85;;;;;;;;;;6231281;23;20012;-73
2021/09/27 06:05:16;;;;;;;21.67;13.75;;;;;;;;;;6231539;23;20520;-74
2021/09/27 06:07:48;;;;;;;17.20;13.10;;;;;;;;;;6231136;23;20008;-75
2021/09/27 06:10:20;;;;;;;18.25;12.55;;;;;;;;;;6230410;23;19996;-73
2021/09/27 06:13:12;;;;;;;20.20;11.63;;;;;;;;;;6231465;23;20012;-73
2021/09/27 06:15:49;;;;;;;18.23;10.82;;;;;;;;;;6230890;23;20007;-75
2021/09/27 06:18:34;;;;;;;16.40;10.82;;;;;;;;;;6231340;23;20130;-74
2021/09/27 06:21:06;;;;;;;18.30;11.18;;;;;;;;;;6229203;23;20058;-74
2021/09/27 06:23:51;;;;;;;15.27;10.30;;;;;;;;;;6231001;23;20004;-74
2021/09/27 06:26:18;;;;;;;18.60;10.20;;;;;;;;;;6232137;23;20004;-75
2021/09/27 06:28:57;;;;;;;15.82;9.88;;;;;;;;;;6207264;23;20425;-75
2021/09/27 06:31:26;;;;;;;14.85;9.52;;;;;;;;;;6230830;23;20027;-76
2021/09/27 06:33:55;;;;;;;21.15;10.75;;;;;;;;;;6233460;23;20008;-75
2021/09/27 06:36:23;;;;;;;20.08;10.43;;;;;;;;;;6232337;23;20643;-76
2021/09/27 06:38:57;;;;;;;17.52;9.98;;;;;;;;;;6232939;23;20007;-74
2021/09/27 06:41:24;;;;;;;15.68;9.75;;;;;;;;;;6233034;23;20083;-73
2021/09/27 06:43:51;;;;;;;19.83;10.25;;;;;;;;;;6231894;23;20474;-75
2021/09/27 06:46:19;;;;;;;17.48;10.18;;;;;;;;;;6233050;23;20031;-74
2021/09/27 06:48:45;;;;;;;15.95;9.93;;;;;;;;;;6233456;23;20014;-73
2021/09/27 06:51:12;;;;;;;15.27;10.68;;;;;;;;;;6231392;23;19996;-77
2021/09/27 06:53:38;;;;;;;17.40;9.98;;;;;;;;;;6233080;23;20000;-76
2021/09/27 06:56:04;;;;;;;16.02;9.30;;;;;;;;;;6204316;23;20015;-76
2021/09/27 06:58:30;;;;;;;14.55;9.85;;;;;;;;;;6232737;23;20063;-76
2021/09/27 07:00:57;;;;;;;12.80;9.93;;;;;;;;;;6231390;22;20012;-79
2021/09/27 07:03:23;;;;;;;17.13;10.00;;;;;;;;;;6228200;23;20039;-76
2021/09/27 07:05:50;;;;;;;16.15;9.75;;;;;;;;;;6231407;23;20454;-75
2021/09/27 07:08:18;;;;;;;17.52;9.70;;;;;;;;;;6231630;23;20000;-75
2021/09/27 07:10:45;;;;;;;16.05;8.90;;;;;;;;;;6231655;23;20028;-74
2021/09/27 07:13:13;;;;;;;18.15;10.65;;;;;;;;;;6231170;23;20028;-75
2021/09/27 07:15:40;;;;;;;18.73;11.52;;;;;;;;;;6232407;23;20008;-76
2021/09/27 07:18:06;;;;;;;18.30;11.52;;;;;;;;;;6232624;23;20067;-75
2021/09/27 07:20:32;;;;;;;14.52;10.38;;;;;;;;;;6232133;23;20004;-78
2021/09/27 07:22:59;;;;;;;23.80;10.82;;;;;;;;;;6232999;23;20004;-78
2021/09/27 07:25:26;;;;;;;15.40;10.88;;;;;;;;;;6231099;23;20000;-75
2021/09/27 07:27:53;;;;;;;23.58;10.70;;;;;;;;;;6233024;23;20371;-75
2021/09/27 07:30:20;;;;;;;21.65;12.05;;;;;;;;;;6232269;23;20409;-76
2021/09/27 07:32:46;;;;;;;17.42;10.40;;;;;;;;;;6231421;23;20050;-75
2021/09/27 07:35:14;;;;;;;22.25;11.02;;;;;;;;;;6230907;23;20005;-74
2021/09/27 07:37:40;;;;;;;21.85;10.38;;;;;;;;;;6232230;23;20032;-74
2021/09/27 07:40:07;;;;;;;21.80;10.10;;;;;;;;;;6231791;23;20003;-77
2021/09/27 07:42:34;;;;;;;19.80;11.02;;;;;;;;;;6232306;23;20008;-75
2021/09/27 07:45:00;;;;;;;15.45;9.93;;;;;;;;;;6227960;23;20027;-80
2021/09/27 07:47:26;;;;;;;15.35;9.77;;;;;;;;;;6202461;23;20087;-77
2021/09/27 07:49:52;;;;;;;19.80;10.48;;;;;;;;;;6228321;23;20035;-75
2021/09/27 07:52:19;;;;;;;20.30;10.82;;;;;;;;;;6230812;23;20000;-76
2021/09/27 07:54:45;;;;;;;15.93;11.05;;;;;;;;;;6231891;23;20031;-75
2021/09/27 07:57:11;;;;;;;22.98;11.90;;;;;;;;;;6229733;23;20000;-74
2021/09/27 07:59:37;;;;;;;16.08;11.48;;;;;;;;;;6231738;22;20004;-74
2021/09/27 08:02:04;;;;;;;22.42;11.10;;;;;;;;;;6231746;23;20012;-74
2021/09/27 08:04:31;;;;;;;17.63;11.23;;;;;;;;;;6231727;23;20035;-75
2021/09/27 08:06:58;;;;;;;17.83;10.75;;;;;;;;;;6231805;23;20007;-76
2021/09/27 08:09:24;;;;;;;17.63;11.45;;;;;;;;;;6230223;23;20004;-74
2021/09/27 08:11:50;;;;;;;14.20;9.88;;;;;;;;;;6231665;23;20000;-77
2021/09/27 08:14:16;;;;;;;13.85;9.68;;;;;;;;;;6232382;23;20020;-75
2021/09/27 08:16:43;;;;;;;16.80;10.10;;;;;;;;;;6231940;23;20306;-75
2021/09/27 08:19:09;;;;;;;17.65;10.23;;;;;;;;;;6232085;23;20000;-76
2021/09/27 08:21:35;;;;;;;19.77;10.45;;;;;;;;;;6231488;23;20088;-75
2021/09/27 08:24:01;;;;;;;13.48;9.00;;;;;;;;;;6228911;23;20083;-75
2021/09/27 08:26:27;;;;;;;16.48;8.63;;;;;;;;;;6205059;23;20023;-76
2021/09/27 08:28:54;;;;;;;13.60;8.02;;;;;;;;;;6231812;23;20000;-76
2021/09/27 08:31:21;;;;;;;13.73;8.05;;;;;;;;;;6203346;23;20852;-75
2021/09/27 08:33:49;;;;;;;15.18;7.50;;;;;;;;;;6231155;23;20393;-76
2021/09/27 08:36:16;;;;;;;21.65;9.75;;;;;;;;;;6231985;23;20000;-75
2021/09/27 08:38:42;;;;;;;15.15;9.30;;;;;;;;;;6231122;23;20554;-75
2021/09/27 08:41:20;;;;;;;10.05;7.82;;;;;;;;;;6229430;23;20012;-76
2021/09/27 08:43:49;;;;;;;20.52;9.13;;;;;;;;;;6230700;23;20027;-75
2021/09/27 08:46:36;;;;;;;14.27;9.10;;;;;;;;;;6231031;23;20361;-76
2021/09/27 08:49:05;;;;;;;15.30;9.15;;;;;;;;;;6230283;23;20333;-75
2021/09/27 08:51:33;;;;;;;16.27;9.32;;;;;;;;;;6229476;23;20058;-75
2021/09/27 08:54:00;;;;;;;21.23;9.60;;;;;;;;;;6231086;23;20082;-78
2021/09/27 08:56:35;;;;;;;17.67;9.05;;;;;;;;;;6232014;23;20007;-75
2021/09/27 08:59:05;;;;;;;18.75;8.93;;;;;;;;;;6231206;22;20032;-77
2021/09/27 09:01:40;;;;;;;13.07;9.38;;;;;;;;;;6230229;23;20090;-74
2021/09/27 09:04:15;;;;;;;21.17;9.93;;;;;;;;;;6231414;23;20000;-76
2021/09/27 09:06:46;;;;;;;17.60;9.27;;;;;;;;;;6231722;23;20023;-77
2021/09/27 09:09:15;;;;;;;17.00;8.73;;;;;;;;;;6232153;23;20501;-79
2021/09/27 09:12:14;;;;;;;15.70;9.32;;;;;;;;;;6230344;23;20008;-76
2021/09/27 09:14:46;;;;;;;12.43;9.27;;;;;;;;;;6164768;23;20004;-79
2021/09/27 09:17:12;;;;;;;;;;;;;;;;;;6232365;23;20036;-76
2021/09/27 09:19:38;;;;;;;21.25;9.73;;;;;;;;;;6231865;23;20343;-75
2021/09/27 09:22:12;;;;;;;18.00;11.05;;;;;;;;;;6231660;23;20011;-75
2021/09/27 09:24:40;;;;;;;14.27;9.57;;;;;;;;;;6229685;23;20310;-76
2021/09/27 09:27:08;;;;;;;16.52;10.00;;;;;;;;;;6205295;23;20015;-75
2021/09/27 09:29:36;;;;;;;21.15;9.43;;;;;;;;;;6232059;23;20031;-82
2021/09/27 09:32:11;;;;;;;15.38;9.65;;;;;;;;;;6231803;23;20623;-75
2021/09/27 09:34:37;;;;;;;11.88;9.60;;;;;;;;;;6229400;23;20035;-75
2021/09/27 09:37:09;;;;;;;19.55;11.02;;;;;;;;;;6231717;23;19996;-76
2021/09/27 09:39:35;;;;;;;19.17;11.48;;;;;;;;;;6232245;23;20491;-75
2021/09/27 09:42:04;;;;;;;14.63;10.77;;;;;;;;;;6231721;23;20380;-77
2021/09/27 09:44:33;;;;;;;21.92;12.50;;;;;;;;;;6231094;23;20003;-75
2021/09/27 09:47:06;;;;;;;17.02;11.05;;;;;;;;;;6229227;23;20130;-76
2021/09/27 09:49:53;;;;;;;18.30;11.77;;;;;;;;;;6231334;23;20007;-74
2021/09/27 09:52:25;;;;;;;15.73;10.32;;;;;;;;;;6231146;23;20008;-79
2021/09/27 09:54:52;;;;;;;14.90;9.45;;;;;;;;;;6230679;23;20000;-76
2021/09/27 09:57:24;;;;;;;17.30;10.85;;;;;;;;;;6231569;23;20000;-76
2021/09/27 09:59:55;;;;;;;13.13;8.98;;;;;;;;;;6231715;22;20042;-75
2021/09/27 10:02:21;;;;;;;;;;;;;;;;;;6205360;23;20427;-78
2021/09/27 10:04:50;;;;;;;15.40;8.80;;;;;;;;;;6232861;23;19907;-75
2021/09/27 10:07:20;;;;;;;16.35;9.35;;;;;;;;;;6232800;23;20004;-81
2021/09/27 10:09:55;;;;;;;15.18;10.13;;;;;;;;;;6233492;23;20080;-75
2021/09/27 10:12:37;;;;;;;15.77;9.20;;;;;;;;;;6231139;23;20027;-74
2021/09/27 10:15:03;;;;;;;21.63;10.23;;;;;;;;;;6232943;23;20023;-78
2021/09/27 10:17:37;;;;;;;15.77;8.82;;;;;;;;;;6233301;23;20070;-74
2021/09/27 10:20:12;;;;;;;15.13;9.10;;;;;;;;;;6231967;23;20023;-80
2021/09/27 10:22:42;;;;;;;12.77;8.65;;;;;;;;;;6236726;23;20412;-74
2021/09/27 10:25:25;;;;;;;12.73;7.88;;;;;;;;;;6236866;23;20004;-75
2021/09/27 10:27:52;;;;;;;12.48;8.18;;;;;;;;;;6237402;23;20004;-75
2021/09/27 10:30:21;;;;;;;15.02;7.78;;;;;;;;;;6235342;23;20340;-77
2021/09/27 10:32:52;;;;;;;15.55;8.80;;;;;;;;;;6230927;23;20022;-75
2021/09/27 10:35:18;;;;;;;;;;;;;;;;;;6234510;23;20006;-76
2021/09/27 10:37:46;;;;;;;17.52;9.93;;;;;;;;;;6236983;23;19923;-75
2021/09/27 10:40:14;;;;;;;16.58;9.38;;;;;;;;;;6236130;23;20164;-75
2021/09/27 10:42:45;;;;;;;20.88;11.70;;;;;;;;;;6231487;23;20028;-76
2021/09/27 10:45:13;;;;;;;14.32;9.25;;;;;;;;;;6233525;23;20050;-75
2021/09/27 10:47:45;;;;;;;10.23;8.93;;;;;;;;;;6233497;23;20000;-74
2021/09/27 10:50:20;;;;;;;18.80;9.85;;;;;;;;;;6233845;23;20546;-77
2021/09/27 10:52:49;;;;;;;15.63;9.23;;;;;;;;;;6232268;23;20000;-75
2021/09/27 10:55:19;;;;;;;12.88;8.73;;;;;;;;;;6233733;23;20787;-74
2021/09/27 10:57:54;;;;;;;17.50;9.88;;;;;;;;;;6233970;23;20008;-74
2021/09/27 11:00:39;;;;;;;14.30;10.20;;;;;;;;;;6232643;22;20004;-74
2021/09/27 11:03:16;;;;;;;12.65;8.50;;;;;;;;;;6233864;23;20004;-75
2021/09/27 11:05:48;;;;;;;15.45;8.63;;;;;;;;;;6232518;23;20032;-75
2021/09/27 11:08:15;;;;;;;12.25;8.77;;;;;;;;;;6232967;23;20393;-75
2021/09/27 11:10:47;;;;;;;11.85;8.65;;;;;;;;;;6232006;23;20078;-83
2021/09/27 11:13:17;;;;;;;;;;;;;;;;;;6232789;23;20000;-75
2021/09/27 11:15:52;;;;;;;16.23;8.77;;;;;;;;;;6232167;23;19904;-73
2021/09/27 11:18:27;;;;;;;11.20;8.60;;;;;;;;;;6231720;23;20000;-74
2021/09/27 11:20:59;;;;;;;15.32;9.20;;;;;;;;;;6233905;23;20015;-74
2021/09/27 11:23:29;;;;;;;13.50;8.52;;;;;;;;;;6230837;23;20585;-80
2021/09/27 11:26:26;;;;;;;17.95;9.25;;;;;;;;;;6229161;23;20008;-78
2021/09/27 11:28:54;;;;;;;16.40;9.15;;;;;;;;;;6230497;23;20443;-80
2021/09/27 11:31:26;;;;;;;16.60;9.60;;;;;;;;;;6230300;23;20030;-81
2021/09/27 11:33:53;;;;;;;13.63;8.98;;;;;;;;;;6230073;23;20012;-75
2021/09/27 11:36:32;;;;;;;18.08;9.05;;;;;;;;;;6227107;23;20039;-74
2021/09/27 11:39:08;;;;;;;14.93;9.23;;;;;;;;;;6230736;23;20004;-76
2021/09/27 11:41:37;;;;;;;15.48;10.00;;;;;;;;;;6232365;23;20086;-82
2021/09/27 11:44:09;;;;;;;17.55;9.55;;;;;;;;;;6231188;23;19997;-77
2021/09/27 11:46:44;;;;;;;10.32;8.27;;;;;;;;;;6231872;23;20298;-74
2021/09/27 11:49:18;;;;;;;15.57;9.18;;;;;;;;;;6231064;23;20065;-87
2021/09/27 11:51:59;;;;;;;15.15;8.45;;;;;;;;;;6204725;23;20028;-76
2021/09/27 11:54:37;;;;;;;15.45;9.05;;;;;;;;;;6230904;23;20022;-76
2021/09/27 11:57:05;;;;;;;12.85;9.00;;;;;;;;;;6229189;23;20010;-74
2021/09/27 11:59:31;;;;;;;16.90;8.77;;;;;;;;;;6227706;22;20004;-74
2021/09/27 12:02:20;;;;;;;13.55;9.40;;;;;;;;;;6229816;23;20503;-74
2021/09/27 12:04:46;;;;;;;17.13;8.88;;;;;;;;;;6211388;23;20004;-75
2021/09/27 12:07:14;;;;;;;13.70;8.95;;;;;;;;;;6228770;23;20075;-75
2021/09/27 12:09:46;;;;;;;17.15;8.98;;;;;;;;;;6229588;23;20005;-75
2021/09/27 12:12:21;;;;;;;16.67;9.10;;;;;;;;;;6228571;23;20034;-75
2021/09/27 12:14:49;;;;;;;16.80;8.40;;;;;;;;;;6227333;23;20011;-73
2021/09/27 12:17:16;;;;;;;12.65;8.00;;;;;;;;;;6228692;23;20007;-73
2021/09/27 12:20:04;;;;;;;12.45;8.00;;;;;;;;;;6229135;23;20000;-74
2021/09/27 12:22:32;;;;;;;11.85;8.18;;;;;;;;;;6228317;23;20039;-77
2021/09/27 12:25:00;;;;;;;13.57;8.00;;;;;;;;;;6231016;23;20171;-75
2021/09/27 12:27:28;;;;;;;11.68;8.63;;;;;;;;;;6230143;23;20421;-75
2021/09/27 12:29:54;;;;;;;17.35;8.65;;;;;;;;;;6231327;23;20004;-73
2021/09/27 12:32:25;;;;;;;11.10;8.32;;;;;;;;;;6231656;23;20603;-74
2021/09/27 12:34:51;;;;;;;15.07;8.50;;;;;;;;;;6232332;23;20071;-74
2021/09/27 12:37:19;;;;;;;16.38;7.80;;;;;;;;;;6231884;23;20004;-74
2021/09/27 12:39:46;;;;;;;12.43;7.43;;;;;;;;;;6227162;23;20522;-82
2021/09/27 12:42:20;;;;;;;14.80;7.07;;;;;;;;;;6229333;23;20023;-74
2021/09/27 12:44:50;;;;;;;11.85;7.18;;;;;;;;;;6229077;23;20921;-75
2021/09/27 12:47:17;;;;;;;10.65;7.10;;;;;;;;;;6229001;23;20004;-75
2021/09/27 12:49:51;;;;;;;16.90;7.05;;;;;;;;;;6228172;23;20091;-75
2021/09/27 12:52:42;;;;;;;13.57;7.10;;;;;;;;;;6227633;23;20417;-74
2021/09/27 12:55:10;;;;;;;9.20;6.25;;;;;;;;;;6227534;23;20388;-75
2021/09/27 12:57:39;;;;;;;8.23;6.82;;;;;;;;;;6227585;23;20046;-80
2021/09/27 13:00:32;;;;;;;14.82;7.53;;;;;;;;;;6227563;22;20088;-74
2021/09/27 13:02:59;;;;;;;8.55;6.65;;;;;;;;;;6221938;23;20019;-75
2021/09/27 13:05:27;;;;;;;12.80;6.88;;;;;;;;;;6227771;23;20466;-75
2021/09/27 13:07:57;;;;;;;12.05;7.10;;;;;;;;;;6225134;23;20055;-78
2021/09/27 13:10:26;;;;;;;9.57;7.78;;;;;;;;;;6227612;23;20039;-82
2021/09/27 13:13:04;;;;;;;12.18;7.43;;;;;;;;;;6228069;23;20030;-77
2021/09/27 13:15:33;;;;;;;17.30;8.27;;;;;;;;;;6226762;23;20008;-77
2021/09/27 13:18:02;;;;;;;12.75;6.97;;;;;;;;;;6228440;23;20011;-77
2021/09/27 13:20:30;;;;;;;12.40;7.78;;;;;;;;;;6226483;23;20004;-83
2021/09/27 13:22:57;;;;;;;12.77;7.60;;;;;;;;;;6228499;23;20007;-74
2021/09/27 13:25:29;;;;;;;10.88;7.28;;;;;;;;;;6228888;23;20456;-80
2021/09/27 13:27:55;;;;;;;14.88;6.93;;;;;;;;;;6227157;23;20197;-77
2021/09/27 13:30:28;;;;;;;13.95;7.30;;;;;;;;;;6228795;23;20011;-75
2021/09/27 13:32:57;;;;;;;7.47;6.68;;;;;;;;;;6228739;23;20012;-80
2021/09/27 13:35:23;;;;;;;8.05;5.38;;;;;;;;;;6230536;23;20079;-78
2021/09/27 13:38:03;;;;;;;8.73;6.03;;;;;;;;;;6230896;23;20083;-78
2021/09/27 13:40:30;;;;;;;8.85;7.03;;;;;;;;;;6230871;23;20467;-77
2021/09/27 13:43:10;;;;;;;10.13;6.78;;;;;;;;;;6230944;23;20013;-75
2021/09/27 13:45:39;;;;;;;10.00;6.50;;;;;;;;;;6233168;23;19996;-80
2021/09/27 13:48:05;;;;;;;18.20;8.52;;;;;;;;;;6230912;23;20070;-74
2021/09/27 13:50:31;;;;;;;14.10;7.35;;;;;;;;;;6228683;23;20035;-74
2021/09/27 13:53:04;;;;;;;13.68;6.65;;;;;;;;;;6231166;23;20028;-81
2021/09/27 13:55:30;;;;;;;17.48;7.63;;;;;;;;;;6231293;23;20000;-74
2021/09/27 13:57:57;;;;;;;13.70;6.68;;;;;;;;;;6230150;23;20011;-76
2021/09/27 14:00:23;;;;;;;12.55;7.18;;;;;;;;;;6203502;23;20000;-77
2021/09/27 14:02:49;;;;;;;11.15;7.30;;;;;;;;;;6229707;23;20023;-75
2021/09/27 14:05:16;;;;;;;16.65;6.85;;;;;;;;;;6230566;23;20063;-73
2021/09/27 14:07:42;;;;;;;20.65;7.20;;;;;;;;;;6230068;23;20008;-75
2021/09/27 14:10:09;;;;;;;13.40;7.28;;;;;;;;;;6228864;23;20476;-78
2021/09/27 14:12:36;;;;;;;16.42;7.50;;;;;;;;;;6231011;23;20073;-74
2021/09/27 14:15:02;;;;;;;11.32;7.00;;;;;;;;;;6230088;23;20028;-78
2021/09/27 14:17:29;;;;;;;11.60;6.78;;;;;;;;;;6230425;23;20031;-75
2021/09/27 14:19:55;;;;;;;12.07;7.10;;;;;;;;;;6227091;23;20008;-76
2021/09/27 14:22:21;;;;;;;8.05;5.97;;;;;;;;;;6229948;23;20012;-78
2021/09/27 14:24:47;;;;;;;14.30;6.68;;;;;;;;;;6230662;23;20004;-74
2021/09/27 14:27:14;;;;;;;9.02;7.20;;;;;;;;;;6232168;23;20016;-75
2021/09/27 14:29:40;;;;;;;13.07;7.88;;;;;;;;;;6233240;23;20000;-75
2021/09/27 14:32:06;;;;;;;11.90;7.50;;;;;;;;;;6230849;23;20016;-75
2021/09/27 14:34:32;;;;;;;12.05;7.00;;;;;;;;;;6232953;23;20024;-73
2021/09/27 14:36:59;;;;;;;10.93;8.05;;;;;;;;;;6233359;23;20483;-74
2021/09/27 14:39:25;;;;;;;10.70;7.60;;;;;;;;;;6232575;23;20011;-76
2021/09/27 14:41:52;;;;;;;12.77;7.45;;;;;;;;;;6232513;23;20016;-75
2021/09/27 14:44:18;;;;;;;11.70;7.82;;;;;;;;;;6231705;23;20063;-75
2021/09/27 14:46:46;;;;;;;8.38;7.30;;;;;;;;;;6231985;23;20464;-74
2021/09/27 14:49:12;;;;;;;12.45;7.22;;;;;;;;;;6230301;23;20004;-73
2021/09/27 14:51:39;;;;;;;16.25;7.32;;;;;;;;;;6230085;23;20008;-76
2021/09/27 14:54:05;;;;;;;9.88;6.82;;;;;;;;;;6204062;23;20376;-76